createdAt,value
2018-11-11T00:00:34.895Z,7.80
2018-11-11T00:03:03.111Z,7.80
2018-11-11T00:05:31.323Z,7.80
2018-11-11T00:07:59.530Z,7.80
2018-11-11T00:10:27.814Z,7.80
2018-11-11T00:12:56.004Z,7.80
2018-11-11T00:15:24.427Z,7.80
2018-11-11T00:17:52.833Z,7.80
2018-11-11T00:20:21.031Z,7.80
2018-11-11T00:22:49.208Z,7.80
2018-11-11T00:25:17.388Z,7.80
2018-11-11T00:27:45.566Z,7.80
2018-11-11T00:30:16.970Z,7.80
2018-11-11T00:32:45.167Z,7.80
2018-11-11T00:35:13.355Z,7.80
2018-11-11T00:37:41.903Z,7.70
2018-11-11T00:40:11.723Z,7.70
2018-11-11T00:42:40.187Z,7.70
2018-11-11T00:45:09.251Z,7.70
2018-11-11T00:47:37.419Z,7.70
2018-11-11T00:50:07.067Z,7.70
2018-11-11T00:52:35.281Z,7.70
2018-11-11T00:55:03.539Z,7.70
2018-11-11T00:57:31.984Z,7.70
2018-11-11T01:00:00.199Z,7.70
2018-11-11T01:02:28.629Z,7.70
2018-11-11T01:04:57.071Z,7.70
2018-11-11T01:07:25.283Z,7.70
2018-11-11T01:09:53.506Z,7.70
2018-11-11T01:12:21.765Z,7.70
2018-11-11T01:14:50.187Z,7.70
2018-11-11T01:17:18.631Z,7.70
2018-11-11T01:19:47.066Z,7.70
2018-11-11T01:22:15.278Z,7.70
2018-11-11T01:24:43.506Z,7.70
2018-11-11T01:27:12.036Z,7.70
2018-11-11T01:29:40.479Z,7.70
2018-11-11T01:32:08.678Z,7.70
2018-11-11T01:34:37.159Z,7.70
2018-11-11T01:37:05.655Z,7.70
2018-11-11T01:39:33.915Z,7.60
2018-11-11T01:42:02.147Z,7.70
2018-11-11T01:44:30.368Z,7.60
2018-11-11T01:46:58.579Z,7.60
2018-11-11T01:49:26.799Z,7.60
2018-11-11T01:51:55.234Z,7.60
2018-11-11T01:54:23.447Z,7.60
2018-11-11T01:56:51.936Z,7.50
2018-11-11T01:59:20.592Z,7.50
2018-11-11T02:01:49.051Z,7.60
2018-11-11T02:04:17.704Z,7.50
2018-11-11T02:06:45.923Z,7.50
2018-11-11T02:09:14.136Z,7.60
2018-11-11T02:11:42.367Z,7.60
2018-11-11T02:14:10.574Z,7.60
2018-11-11T02:16:38.796Z,7.60
2018-11-11T02:19:07.350Z,7.60
2018-11-11T02:21:35.611Z,7.60
2018-11-11T02:24:04.028Z,7.70
2018-11-11T02:26:32.469Z,7.70
2018-11-11T02:29:00.999Z,7.60
2018-11-11T02:31:29.219Z,7.60
2018-11-11T02:33:57.664Z,7.60
2018-11-11T02:36:26.105Z,7.70
2018-11-11T02:38:54.532Z,7.70
2018-11-11T02:41:22.759Z,7.70
2018-11-11T02:43:51.430Z,7.70
2018-11-11T02:46:19.643Z,7.70
2018-11-11T02:48:48.079Z,7.80
2018-11-11T02:51:16.311Z,7.70
2018-11-11T02:53:44.538Z,7.70
2018-11-11T02:56:12.745Z,7.70
2018-11-11T02:58:41.183Z,7.70
2018-11-11T03:01:09.407Z,7.70
2018-11-11T03:03:37.632Z,7.70
2018-11-11T03:06:05.883Z,7.70
2018-11-11T03:08:34.088Z,7.70
2018-11-11T03:11:02.289Z,7.70
2018-11-11T03:13:30.483Z,7.70
2018-11-11T03:15:58.679Z,7.60
2018-11-11T03:18:26.886Z,7.60
2018-11-11T03:20:55.106Z,7.60
2018-11-11T03:23:23.332Z,7.60
2018-11-11T03:25:51.740Z,7.60
2018-11-11T03:28:19.954Z,7.50
2018-11-11T03:30:48.144Z,7.50
2018-11-11T03:33:16.387Z,7.50
2018-11-11T03:35:45.175Z,7.50
2018-11-11T03:38:13.366Z,7.50
2018-11-11T03:40:41.883Z,7.50
2018-11-11T03:43:10.079Z,7.50
2018-11-11T03:45:38.268Z,7.50
2018-11-11T03:48:06.477Z,7.50
2018-11-11T03:50:34.892Z,7.50
2018-11-11T03:53:03.088Z,7.50
2018-11-11T03:55:31.273Z,7.50
2018-11-11T03:57:59.479Z,7.50
2018-11-11T04:00:27.917Z,7.50
2018-11-11T04:02:56.335Z,7.50
2018-11-11T04:05:24.529Z,7.50
2018-11-11T04:07:52.733Z,7.50
2018-11-11T04:10:20.946Z,7.50
2018-11-11T04:12:49.708Z,7.50
2018-11-11T04:15:19.060Z,7.50
2018-11-11T04:17:47.556Z,7.50
2018-11-11T04:20:17.347Z,7.50
2018-11-11T04:22:45.543Z,7.50
2018-11-11T04:25:14.415Z,7.60
2018-11-11T04:27:42.612Z,7.60
2018-11-11T04:30:11.783Z,7.50
2018-11-11T04:32:40.376Z,7.50
2018-11-11T04:35:08.596Z,7.50
2018-11-11T04:37:36.812Z,7.50
2018-11-11T04:40:06.730Z,7.50
2018-11-11T04:42:34.940Z,7.50
2018-11-11T04:45:03.373Z,7.60
2018-11-11T04:47:31.572Z,7.60
2018-11-11T04:49:59.767Z,7.60
2018-11-11T04:52:27.971Z,7.60
2018-11-11T04:54:56.396Z,7.50
2018-11-11T04:57:24.592Z,7.50
2018-11-11T04:59:52.801Z,7.50
2018-11-11T05:02:21.004Z,7.50
2018-11-11T05:04:49.280Z,7.50
2018-11-11T05:07:17.426Z,7.50
2018-11-11T05:09:45.640Z,7.50
2018-11-11T05:12:13.840Z,7.50
2018-11-11T05:14:42.048Z,7.40
2018-11-11T05:17:11.364Z,7.50
2018-11-11T05:19:39.556Z,7.40
2018-11-11T05:22:08.230Z,7.40
2018-11-11T05:24:36.563Z,7.40
2018-11-11T05:27:05.070Z,7.40
2018-11-11T05:29:33.493Z,7.40
2018-11-11T05:32:01.897Z,7.30
2018-11-11T05:34:30.104Z,7.30
2018-11-11T05:36:58.529Z,7.30
2018-11-11T05:39:26.992Z,7.30
2018-11-11T05:41:55.182Z,7.30
2018-11-11T05:44:23.404Z,7.40
2018-11-11T05:46:51.615Z,7.40
2018-11-11T05:49:19.819Z,7.40
2018-11-11T05:51:48.232Z,7.40
2018-11-11T05:54:16.478Z,7.40
2018-11-11T05:56:44.671Z,7.40
2018-11-11T05:59:12.867Z,7.40
2018-11-11T06:01:41.055Z,7.40
2018-11-11T06:04:09.275Z,7.40
2018-11-11T06:06:37.531Z,7.40
2018-11-11T06:09:08.318Z,7.50
2018-11-11T06:11:36.595Z,7.40
2018-11-11T06:14:05.088Z,7.40
2018-11-11T06:16:33.523Z,7.40
2018-11-11T06:19:01.756Z,7.40
2018-11-11T06:21:29.972Z,7.50
2018-11-11T06:23:58.192Z,7.40
2018-11-11T06:26:26.624Z,7.50
2018-11-11T06:28:55.076Z,7.50
2018-11-11T06:31:23.288Z,7.40
2018-11-11T06:33:51.549Z,7.50
2018-11-11T06:36:19.740Z,7.50
2018-11-11T06:38:48.063Z,7.50
2018-11-11T06:41:16.275Z,7.50
2018-11-11T06:43:44.491Z,7.50
2018-11-11T06:46:12.715Z,7.50
2018-11-11T06:48:40.977Z,7.60
2018-11-11T06:51:09.412Z,7.60
2018-11-11T06:53:37.913Z,7.60
2018-11-11T06:56:06.844Z,7.60
2018-11-11T06:58:35.071Z,7.60
2018-11-11T07:01:03.280Z,7.60
2018-11-11T07:03:49.508Z,7.60
2018-11-11T07:06:17.729Z,7.60
2018-11-11T07:08:45.939Z,7.60
2018-11-11T07:11:14.712Z,7.60
2018-11-11T07:13:42.887Z,7.60
2018-11-11T07:16:11.967Z,7.70
2018-11-11T07:18:40.159Z,7.60
2018-11-11T07:21:08.711Z,7.60
2018-11-11T07:23:36.983Z,7.70
2018-11-11T07:26:05.626Z,7.70
2018-11-11T07:28:33.841Z,7.70
2018-11-11T07:31:02.038Z,7.70
2018-11-11T07:33:30.240Z,7.60
2018-11-11T07:35:59.109Z,7.60
2018-11-11T07:38:27.243Z,7.60
2018-11-11T07:40:55.460Z,7.70
2018-11-11T07:43:23.668Z,7.60
2018-11-11T07:45:51.923Z,7.60
2018-11-11T07:48:20.482Z,7.70
2018-11-11T07:50:48.702Z,7.60
2018-11-11T07:53:16.893Z,7.60
2018-11-11T07:55:45.095Z,7.70
2018-11-11T07:58:14.163Z,7.70
2018-11-11T08:00:42.347Z,7.70
2018-11-11T08:03:10.544Z,7.70
2018-11-11T08:05:38.743Z,7.80
2018-11-11T08:08:06.939Z,7.80
2018-11-11T08:10:46.638Z,7.80
2018-11-11T08:13:14.855Z,7.80
2018-11-11T08:15:43.107Z,7.80
2018-11-11T08:18:11.320Z,7.90
2018-11-11T08:20:39.559Z,7.90
2018-11-11T08:23:07.780Z,7.90
2018-11-11T08:25:36.083Z,7.90
2018-11-11T08:28:04.271Z,7.90
2018-11-11T08:30:32.627Z,7.80
2018-11-11T08:33:00.835Z,7.90
2018-11-11T08:35:29.128Z,7.90
2018-11-11T08:37:57.355Z,7.90
2018-11-11T08:40:25.625Z,7.90
2018-11-11T08:42:53.786Z,7.90
2018-11-11T08:45:21.999Z,8.00
2018-11-11T08:47:50.531Z,8.00
2018-11-11T08:50:18.752Z,7.90
2018-11-11T08:52:47.114Z,7.90
2018-11-11T08:57:49.079Z,7.90
2018-11-11T09:00:17.291Z,7.90
2018-11-11T09:02:45.503Z,7.90
2018-11-11T09:05:13.843Z,8.00
2018-11-11T09:07:42.141Z,8.10
2018-11-11T09:10:12.282Z,8.10
2018-11-11T09:12:40.519Z,8.10
2018-11-11T09:15:11.286Z,8.20
2018-11-11T09:17:39.883Z,8.20
2018-11-11T09:20:08.557Z,8.20
2018-11-11T09:22:36.804Z,8.30
2018-11-11T09:25:06.133Z,8.40
2018-11-11T09:27:34.343Z,8.40
2018-11-11T09:30:02.568Z,8.40
2018-11-11T09:32:31.011Z,8.40
2018-11-11T09:34:59.251Z,8.40
2018-11-11T09:37:27.483Z,8.40
2018-11-11T09:39:55.913Z,8.40
2018-11-11T09:42:24.154Z,8.40
2018-11-11T09:44:52.574Z,8.40
2018-11-11T09:47:20.816Z,8.50
2018-11-11T09:49:49.042Z,8.60
2018-11-11T09:52:17.275Z,8.60
2018-11-11T09:54:45.736Z,8.50
2018-11-11T09:57:14.173Z,8.50
2018-11-11T09:59:42.452Z,8.60
2018-11-11T10:02:10.654Z,8.80
2018-11-11T10:04:44.336Z,9.00
2018-11-11T10:07:18.112Z,9.00
2018-11-11T10:09:56.119Z,9.00
2018-11-11T10:12:29.799Z,9.20
2018-11-11T10:15:06.981Z,9.50
2018-11-11T10:19:49.169Z,9.80
2018-11-11T10:22:24.756Z,10.00
2018-11-11T10:25:01.264Z,10.20
2018-11-11T10:27:35.346Z,10.10
2018-11-11T10:30:09.945Z,10.40
2018-11-11T10:32:56.748Z,10.50
2018-11-11T10:35:29.644Z,10.50
2018-11-11T10:38:08.123Z,9.90
2018-11-11T10:40:41.753Z,9.80
2018-11-11T10:43:16.461Z,9.90
2018-11-11T10:46:02.470Z,10.00
2018-11-11T10:48:35.734Z,10.10
2018-11-11T10:51:05.484Z,10.10
2018-11-11T10:53:33.688Z,10.20
2018-11-11T10:56:01.888Z,10.50
2018-11-11T10:58:30.089Z,11.00
2018-11-11T11:01:03.713Z,11.50
2018-11-11T11:03:34.344Z,11.60
2018-11-11T11:06:03.274Z,11.50
2018-11-11T11:08:31.603Z,11.60
2018-11-11T11:11:00.401Z,11.00
2018-11-11T11:13:29.710Z,11.40
2018-11-11T11:15:58.979Z,11.50
2018-11-11T11:18:27.194Z,11.60
2018-11-11T11:20:55.520Z,11.50
2018-11-11T11:23:23.728Z,11.30
2018-11-11T11:25:51.947Z,11.20
2018-11-11T11:28:20.138Z,11.40
2018-11-11T11:30:48.575Z,11.40
2018-11-11T11:33:16.772Z,11.30
2018-11-11T11:35:45.271Z,11.50
2018-11-11T11:38:13.425Z,11.40
2018-11-11T11:40:41.828Z,11.20
2018-11-11T11:43:10.252Z,11.50
2018-11-11T11:45:38.711Z,11.50
2018-11-11T11:48:06.875Z,11.60
2018-11-11T11:50:35.172Z,11.80
2018-11-11T11:53:03.813Z,12.00
2018-11-11T11:55:32.124Z,11.90
2018-11-11T11:58:15.006Z,12.20
2018-11-11T12:00:43.503Z,12.40
2018-11-11T12:03:11.742Z,12.70
2018-11-11T12:05:39.983Z,13.10
2018-11-11T12:08:08.514Z,13.40
2018-11-11T12:10:36.818Z,13.60
2018-11-11T12:13:05.471Z,13.30
2018-11-11T12:15:33.928Z,12.50
2018-11-11T12:18:02.150Z,12.60
2018-11-11T12:20:30.379Z,12.20
2018-11-11T12:22:59.534Z,12.00
2018-11-11T12:25:27.994Z,11.50
2018-11-11T12:27:56.899Z,11.70
2018-11-11T12:30:25.636Z,11.80
2018-11-11T12:32:54.044Z,11.40
2018-11-11T12:35:22.485Z,11.50
2018-11-11T12:37:50.703Z,11.00
2018-11-11T12:40:19.343Z,11.20
2018-11-11T12:42:47.606Z,11.50
2018-11-11T12:45:16.428Z,11.50
2018-11-11T12:47:44.655Z,12.40
2018-11-11T12:50:13.567Z,13.10
2018-11-11T12:52:41.760Z,13.30
2018-11-11T12:55:10.270Z,13.40
2018-11-11T12:57:38.736Z,13.50
2018-11-11T13:00:09.559Z,13.80
2018-11-11T13:02:37.855Z,13.70
2018-11-11T13:05:06.927Z,13.40
2018-11-11T13:07:35.323Z,13.60
2018-11-11T13:10:05.235Z,14.40
2018-11-11T13:12:33.452Z,15.10
2018-11-11T13:15:01.924Z,15.10
2018-11-11T13:17:30.348Z,13.80
2018-11-11T13:19:58.548Z,13.60
2018-11-11T13:22:26.898Z,13.40
2018-11-11T13:24:55.204Z,13.40
2018-11-11T13:27:23.420Z,13.40
2018-11-11T13:29:51.851Z,13.30
2018-11-11T13:32:20.056Z,13.20
2018-11-11T13:34:48.254Z,13.20
2018-11-11T13:37:16.465Z,13.10
2018-11-11T13:39:44.659Z,13.10
2018-11-11T13:42:13.084Z,13.40
2018-11-11T13:44:41.307Z,13.80
2018-11-11T13:47:09.500Z,14.60
2018-11-11T13:49:37.711Z,15.10
2018-11-11T13:52:06.066Z,15.90
2018-11-11T13:54:34.261Z,15.90
2018-11-11T13:57:02.475Z,15.70
2018-11-11T13:59:30.684Z,15.20
2018-11-11T14:02:01.162Z,14.40
2018-11-11T14:04:29.347Z,14.10
2018-11-11T14:06:57.557Z,13.80
2018-11-11T14:09:25.762Z,13.60
2018-11-11T14:11:54.283Z,13.50
2018-11-11T14:14:22.476Z,13.20
2018-11-11T14:16:50.677Z,13.00
2018-11-11T14:19:19.103Z,13.10
2018-11-11T14:21:47.101Z,13.00
2018-11-11T14:24:15.310Z,12.90
2018-11-11T14:26:43.897Z,12.70
2018-11-11T14:29:11.937Z,12.60
2018-11-11T14:31:40.143Z,12.70
2018-11-11T14:34:08.348Z,12.60
2018-11-11T14:36:36.580Z,12.60
2018-11-11T14:39:09.387Z,12.50
2018-11-11T14:41:37.954Z,12.50
2018-11-11T14:44:06.528Z,12.40
2018-11-11T14:46:34.748Z,12.20
2018-11-11T14:49:03.190Z,12.00
2018-11-11T14:51:31.723Z,11.80
2018-11-11T14:53:59.934Z,11.50
2018-11-11T14:56:28.137Z,11.40
2018-11-11T14:58:56.889Z,11.20
2018-11-11T15:01:24.931Z,11.00
2018-11-11T15:03:53.130Z,10.90
2018-11-11T15:06:21.339Z,10.90
2018-11-11T15:08:49.627Z,11.00
2018-11-11T15:11:17.863Z,11.30
2018-11-11T15:13:46.091Z,11.40
2018-11-11T15:16:14.803Z,11.50
2018-11-11T15:18:43.034Z,11.50
2018-11-11T15:21:11.251Z,11.40
2018-11-11T15:23:39.483Z,11.20
2018-11-11T15:26:07.699Z,11.00
2018-11-11T15:28:35.927Z,10.70
2018-11-11T15:31:04.328Z,10.40
2018-11-11T15:33:32.607Z,10.20
2018-11-11T15:36:00.829Z,10.00
2018-11-11T15:38:29.094Z,9.80
2018-11-11T15:40:57.534Z,9.60
2018-11-11T15:43:25.870Z,9.40
2018-11-11T15:45:54.097Z,9.30
2018-11-11T15:48:22.320Z,9.20
2018-11-11T15:50:50.548Z,9.10
2018-11-11T15:53:18.791Z,8.90
2018-11-11T15:55:47.019Z,8.80
2018-11-11T15:58:15.611Z,8.70
2018-11-11T16:00:44.031Z,8.60
2018-11-11T16:03:12.559Z,8.50
2018-11-11T16:05:40.988Z,8.50
2018-11-11T16:08:09.207Z,8.40
2018-11-11T16:10:37.424Z,8.30
2018-11-11T16:13:05.668Z,8.30
2018-11-11T16:15:36.252Z,8.10
2018-11-11T16:18:06.385Z,8.10
2018-11-11T16:20:34.607Z,8.00
2018-11-11T16:23:03.879Z,7.90
2018-11-11T16:25:32.419Z,7.90
2018-11-11T16:28:00.571Z,7.80
2018-11-11T16:30:30.214Z,7.70
2018-11-11T16:32:59.397Z,7.60
2018-11-11T16:35:28.397Z,7.60
2018-11-11T16:37:56.845Z,7.50
2018-11-11T16:40:26.557Z,7.40
2018-11-11T16:42:55.467Z,7.30
2018-11-11T16:45:24.891Z,7.30
2018-11-11T16:47:53.143Z,7.20
2018-11-11T16:50:23.804Z,7.10
2018-11-11T16:52:52.755Z,7.10
2018-11-11T16:55:22.279Z,7.00
2018-11-11T16:57:50.455Z,6.90
2018-11-11T17:00:20.557Z,6.90
2018-11-11T17:02:49.256Z,6.80
2018-11-11T17:05:18.766Z,6.80
2018-11-11T17:07:47.350Z,6.70
2018-11-11T17:10:16.928Z,6.70
2018-11-11T17:12:46.047Z,6.60
2018-11-11T17:15:15.506Z,6.50
2018-11-11T17:17:43.831Z,6.50
2018-11-11T17:20:13.870Z,6.50
2018-11-11T17:22:42.292Z,6.50
2018-11-11T17:25:11.919Z,6.50
2018-11-11T17:27:40.306Z,6.40
2018-11-11T17:30:12.589Z,6.40
2018-11-11T17:32:41.301Z,6.30
2018-11-11T17:35:10.206Z,6.30
2018-11-11T17:37:38.779Z,6.20
2018-11-11T17:40:09.070Z,6.20
2018-11-11T17:42:37.739Z,6.10
2018-11-11T17:45:06.531Z,6.10
2018-11-11T17:47:35.937Z,6.00
2018-11-11T17:50:05.558Z,5.90
2018-11-11T17:52:33.827Z,5.90
2018-11-11T17:55:02.032Z,5.90
2018-11-11T17:57:30.267Z,5.90
2018-11-11T17:59:58.479Z,6.00
2018-11-11T18:02:26.752Z,6.00
2018-11-11T18:04:55.424Z,5.90
2018-11-11T18:07:23.621Z,5.90
2018-11-11T18:09:51.851Z,5.90
2018-11-11T18:12:20.108Z,5.80
2018-11-11T18:14:48.579Z,5.80
2018-11-11T18:17:16.974Z,5.80
2018-11-11T18:19:45.440Z,5.70
2018-11-11T18:22:13.751Z,5.60
2018-11-11T18:24:41.989Z,5.60
2018-11-11T18:27:10.226Z,5.60
2018-11-11T18:29:38.732Z,5.50
2018-11-11T18:32:07.764Z,5.50
2018-11-11T18:34:36.029Z,5.50
2018-11-11T18:37:04.983Z,5.50
2018-11-11T18:39:33.227Z,5.50
2018-11-11T18:42:01.452Z,5.50
2018-11-11T18:44:29.755Z,5.40
2018-11-11T18:46:58.035Z,5.40
2018-11-11T18:49:26.278Z,5.40
2018-11-11T18:51:54.580Z,5.30
2018-11-11T18:54:22.868Z,5.30
2018-11-11T18:56:51.224Z,5.30
2018-11-11T18:59:19.558Z,5.30
2018-11-11T19:01:47.773Z,5.20
2018-11-11T19:04:15.994Z,5.20
2018-11-11T19:06:44.365Z,5.20
2018-11-11T19:09:13.920Z,5.20
2018-11-11T19:11:43.136Z,5.20
2018-11-11T19:14:11.605Z,5.10
2018-11-11T19:16:39.880Z,5.20
2018-11-11T19:19:08.759Z,5.10
2018-11-11T19:21:37.262Z,5.10
2018-11-11T19:24:06.259Z,5.10
2018-11-11T19:26:34.582Z,5.10
2018-11-11T19:29:02.816Z,5.10
2018-11-11T19:31:31.127Z,5.10
2018-11-11T19:33:59.585Z,5.10
2018-11-11T19:36:28.016Z,5.10
2018-11-11T19:38:56.233Z,5.10
2018-11-11T19:41:24.540Z,5.00
2018-11-11T19:43:52.717Z,5.00
2018-11-11T19:46:21.589Z,5.00
2018-11-11T19:48:50.057Z,4.90
2018-11-11T19:51:18.754Z,4.90
2018-11-11T19:53:47.058Z,5.00
2018-11-11T19:56:15.299Z,5.00
2018-11-11T19:58:43.751Z,5.00
2018-11-11T20:01:12.012Z,5.00
2018-11-11T20:03:40.295Z,4.90
2018-11-11T20:06:08.627Z,4.90
2018-11-11T20:08:37.072Z,4.90
2018-11-11T20:11:05.427Z,4.90
2018-11-11T20:13:33.617Z,4.80
2018-11-11T20:16:02.055Z,4.80
2018-11-11T20:18:30.496Z,4.70
2018-11-11T20:20:58.726Z,4.70
2018-11-11T20:23:27.159Z,4.70
2018-11-11T20:25:55.379Z,4.80
2018-11-11T20:28:23.600Z,4.80
2018-11-11T20:30:52.025Z,4.90
2018-11-11T20:33:20.453Z,4.90
2018-11-11T20:35:48.714Z,5.00
2018-11-11T20:38:17.387Z,5.10
2018-11-11T20:40:45.607Z,5.10
2018-11-11T20:43:14.173Z,5.10
2018-11-11T20:45:42.720Z,5.10
2018-11-11T20:48:11.030Z,5.00
2018-11-11T20:50:39.243Z,4.90
2018-11-11T20:53:07.997Z,4.90
2018-11-11T20:55:36.255Z,4.90
2018-11-11T20:58:04.952Z,4.80
2018-11-11T21:00:35.632Z,4.80
2018-11-11T21:03:03.863Z,4.80
2018-11-11T21:05:32.363Z,4.70
2018-11-11T21:08:00.695Z,4.70
2018-11-11T21:10:29.500Z,4.70
2018-11-11T21:12:58.484Z,4.70
2018-11-11T21:15:28.099Z,4.70
2018-11-11T21:17:56.484Z,4.60
2018-11-11T21:20:29.028Z,4.50
2018-11-11T21:22:57.400Z,4.50
2018-11-11T21:25:25.818Z,4.50
2018-11-11T21:27:54.172Z,4.50
2018-11-11T21:30:24.783Z,4.50
2018-11-11T21:32:53.189Z,4.50
2018-11-11T21:35:21.700Z,4.50
2018-11-11T21:37:50.137Z,4.50
2018-11-11T21:40:19.703Z,4.40
2018-11-11T21:42:48.914Z,4.40
2018-11-11T21:45:18.355Z,4.40
2018-11-11T21:47:46.743Z,4.40
2018-11-11T21:50:17.583Z,4.40
2018-11-11T21:52:51.494Z,4.40
2018-11-11T21:55:19.936Z,4.30
2018-11-11T21:57:48.191Z,4.30
2018-11-11T22:00:16.465Z,4.20
2018-11-11T22:02:45.334Z,4.20
2018-11-11T22:05:13.728Z,4.10
2018-11-11T22:07:41.973Z,4.00
2018-11-11T22:10:12.781Z,3.90
2018-11-11T22:12:40.987Z,3.90
2018-11-11T22:15:10.267Z,3.90
2018-11-11T22:17:38.824Z,3.80
2018-11-11T22:20:08.243Z,3.80
2018-11-11T22:22:36.683Z,3.80
2018-11-11T22:25:05.180Z,3.90
2018-11-11T22:27:33.476Z,3.80
2018-11-11T22:30:01.723Z,3.80
2018-11-11T22:32:30.180Z,3.70
2018-11-11T22:34:58.404Z,3.80
2018-11-11T22:37:26.656Z,3.70
2018-11-11T22:39:55.136Z,3.70
2018-11-11T22:42:23.502Z,3.60
2018-11-11T22:44:51.541Z,3.60
2018-11-11T22:47:19.756Z,3.60
2018-11-11T22:49:48.024Z,3.50
2018-11-11T22:52:16.296Z,3.50
2018-11-11T22:54:44.510Z,3.50
2018-11-11T22:57:12.721Z,3.40
2018-11-11T22:59:40.931Z,3.30
2018-11-11T23:02:09.205Z,3.30
2018-11-11T23:04:37.547Z,3.20
2018-11-11T23:07:06.289Z,3.20
2018-11-11T23:09:34.507Z,3.10
2018-11-11T23:12:03.056Z,3.00
2018-11-11T23:14:31.286Z,3.00
2018-11-11T23:16:59.491Z,2.90
2018-11-11T23:19:27.773Z,2.90
2018-11-11T23:21:55.987Z,2.90
2018-11-11T23:24:24.663Z,2.80
2018-11-11T23:26:52.879Z,2.70
2018-11-11T23:29:21.118Z,2.60
2018-11-11T23:31:49.396Z,2.60
2018-11-11T23:34:17.735Z,2.60
2018-11-11T23:36:46.234Z,2.60
2018-11-11T23:39:14.407Z,2.70
2018-11-11T23:41:43.076Z,2.70
2018-11-11T23:44:11.513Z,2.70
2018-11-11T23:46:39.975Z,2.70
2018-11-11T23:49:09.203Z,2.70
2018-11-11T23:51:37.419Z,2.80
2018-11-11T23:54:05.930Z,2.80
2018-11-11T23:56:34.411Z,2.80
2018-11-11T23:59:02.639Z,2.80
